Details From BIKF - Keflavik
To BIIS - Isafjordur
Flight Number -
Tags decoded
Created
Modified
Stats Distance 146 nm / 270 km
Max Altitude 0 ft / 0 m
Waypoints 7
Social Downloads 2
Likes 0
Share VATSIM

Download

Looking for another format? Having issues loading an existing format? Contact us
Advertisement - Login to hide

Notes

Requested: BIKF RK MYRAR SKALM RE OG BIIS

Route

BIKF RK MYRAR SKALM RE OG BIIS

ID Type Via Altitude Latitude Longitude Leg Dist Tot Dist Heading (true) Name
O BIKF APT - 0 ft / 0 m 63.98161˚ -22.61456˚ - 0 nm - Keflavik
RK NDB - 0 ft / 0 m 64.15147˚ -22.02883˚ 18 nm 18 nm 56° / 57° REYKJAVIK NDB
MYRAR FIX - 0 ft / 0 m 64.70222˚ -22.14806˚ 33 nm 51 nm 355° / 355° -
SKALM FIX - 0 ft / 0 m 65.62861˚ -22.36000˚ 55 nm 107 nm 355° / 354° -
RE NDB - 0 ft / 0 m 65.92650˚ -22.43153˚ 17 nm 125 nm 354° / 354° REYKJANESSKOLI NDB
OG NDB - 0 ft / 0 m 66.04397˚ -22.68144˚ 9 nm 134 nm 319° / 319° OGUR NDB
O BIIS APT - 0 ft / 0 m 66.05810˚ -23.13520˚ 11 nm 145 nm 275° / 274° Isafjordur

Altitude Profile

Advertisement - Login to hide

BIKF

Details ICAO BIKF (KEF)
Name Keflavik
Region Iceland
Timezone Atlantic/Reykjavik (UTC+0.0)
Stats Elevation 170 ft / 52 m (AMSL)
Location 63.981612° -22.614563°
Runways 2
Magnetic Variation 14.070° W

METAR

BIKF 110800Z 10007KT CAVOK M05/M11 Q1004 R01/390042

Decode

TAF

TAF BIKF 110735Z 1109/1209 09005KT CAVOK TX04/1205Z TNM06/1107Z BECMG 1112/1115 12015KT 9999 FEW030 BKN050 BECMG 1118/1120 14022G32KT PROB40 TEMPO 1120/1122 3000 -SNRA OVC012 BECMG 1121/1123 14032G42KT 5000 RA BKN013 OVC020 FM120540 17012KT 9999 SHRA SCT015 BKN025

Decode

Departure Runways

ID Width Length Bearing (true) Bearing (mag) Surface Threshold Offset Overrun Length
02 197 ft / 60 m 9,997 ft / 3,047 m 0.02° 14.09° Asphalt 0 ft / 0 m 492 ft / 150 m
11 197 ft / 60 m 10,022 ft / 3,055 m 89.97° 104.04° Asphalt 0 ft / 0 m 246 ft / 75 m
20 197 ft / 60 m 9,997 ft / 3,047 m 180.02° 194.09° Asphalt 0 ft / 0 m 98 ft / 30 m
29 197 ft / 60 m 10,022 ft / 3,055 m 270.02° 284.09° Asphalt 0 ft / 0 m 197 ft / 60 m

BIIS

Details ICAO BIIS (IFJ)
Name Isafjordur
Region Iceland
Timezone Unknown (UTC+0.0)
Stats Elevation 7 ft / 2 m (AMSL)
Location 66.058100° -23.135201°
Runways 1
Magnetic Variation 15.283° W

METAR

BIIS 110800Z 20003KT CAVOK M07/M12 Q1006 R88/39//55

Decode

TAF

Not found

Destination Runways

ID Width Length Bearing (true) Bearing (mag) Surface Threshold Offset Overrun Length
08 139 ft / 42 m 4,598 ft / 1,401 m 61.84° 77.12° Asphalt 0 ft / 0 m 0 ft / 0 m
26 139 ft / 42 m 4,598 ft / 1,401 m 241.86° 257.14° Asphalt 0 ft / 0 m 0 ft / 0 m

Approach Navaids

Runway Type Ident Frequency Range Bearing (true) Bearing (mag) Slope Elevation
26 Localiser IOG 110.10 MHz 18 nm / 33 km 312.00° 327.28° - 8 ft / 2 m (AMSL)

Popular Alternatives